createdAt,value
2018-03-16T00:02:18.601Z,7.40
2018-03-16T00:04:47.552Z,7.40
2018-03-16T00:07:16.432Z,7.40
2018-03-16T00:09:45.352Z,7.50
2018-03-16T00:12:14.293Z,7.60
2018-03-16T00:14:43.246Z,7.60
2018-03-16T00:17:12.068Z,7.60
2018-03-16T00:19:40.915Z,7.60
2018-03-16T00:22:09.901Z,7.60
2018-03-16T00:24:39.154Z,7.60
2018-03-16T00:27:08.784Z,7.50
2018-03-16T00:29:38.368Z,7.50
2018-03-16T00:32:07.140Z,7.50
2018-03-16T00:34:37.071Z,7.50
2018-03-16T00:37:05.948Z,7.50
2018-03-16T00:39:35.496Z,7.50
2018-03-16T00:42:05.584Z,7.40
2018-03-16T00:44:34.464Z,7.40
2018-03-16T00:47:04.405Z,7.30
2018-03-16T00:49:33.287Z,7.20
2018-03-16T00:52:02.501Z,7.20
2018-03-16T00:54:32.179Z,7.00
2018-03-16T00:57:01.230Z,7.00
2018-03-16T00:59:30.054Z,7.00
2018-03-16T01:01:58.905Z,7.00
2018-03-16T01:04:27.740Z,6.90
2018-03-16T01:06:56.573Z,6.90
2018-03-16T01:09:26.102Z,6.90
2018-03-16T01:11:54.991Z,6.90
2018-03-16T01:14:23.952Z,6.90
2018-03-16T01:16:53.522Z,6.80
2018-03-16T01:19:22.375Z,6.70
2018-03-16T01:21:51.143Z,6.70
2018-03-16T01:24:21.041Z,6.80
2018-03-16T01:26:50.633Z,6.70
2018-03-16T01:29:20.216Z,6.70
2018-03-16T01:31:49.148Z,6.70
2018-03-16T01:34:17.950Z,6.70
2018-03-16T01:36:46.830Z,6.70
2018-03-16T01:39:15.940Z,6.70
2018-03-16T01:41:45.759Z,6.60
2018-03-16T01:44:14.668Z,6.60
2018-03-16T01:46:43.453Z,6.60
2018-03-16T01:49:13.137Z,6.50
2018-03-16T01:51:41.915Z,6.50
2018-03-16T01:54:11.529Z,6.40
2018-03-16T01:56:40.363Z,6.40
2018-03-16T01:59:09.187Z,6.40
2018-03-16T02:01:38.017Z,6.30
2018-03-16T02:04:06.805Z,6.30
2018-03-16T02:06:35.685Z,6.30
2018-03-16T02:09:04.600Z,6.20
2018-03-16T02:11:34.462Z,6.30
2018-03-16T02:14:04.263Z,6.30
2018-03-16T02:16:33.948Z,6.20
2018-03-16T02:19:03.538Z,6.20
2018-03-16T02:21:32.646Z,6.20
2018-03-16T02:24:02.412Z,6.20
2018-03-16T02:26:31.215Z,6.20
2018-03-16T02:29:00.094Z,6.20
2018-03-16T02:31:29.613Z,6.20
2018-03-16T02:33:58.519Z,6.20
2018-03-16T02:36:27.392Z,6.20
2018-03-16T02:38:56.231Z,6.10
2018-03-16T02:41:25.800Z,5.90
2018-03-16T02:43:54.756Z,5.90
2018-03-16T02:46:24.577Z,5.90
2018-03-16T02:48:53.468Z,5.90
2018-03-16T02:51:22.596Z,5.90
2018-03-16T02:53:52.153Z,5.90
2018-03-16T02:56:21.028Z,5.80
2018-03-16T02:58:51.313Z,6.10
2018-03-16T03:01:20.284Z,6.10
2018-03-16T03:03:50.092Z,6.10
2018-03-16T03:06:19.906Z,6.10
2018-03-16T03:08:48.768Z,6.10
2018-03-16T03:11:18.311Z,6.10
2018-03-16T03:13:47.961Z,6.20
2018-03-16T03:16:16.742Z,6.10
2018-03-16T03:18:45.551Z,6.20
2018-03-16T03:21:14.405Z,6.30
2018-03-16T03:23:43.228Z,6.40
2018-03-16T03:26:12.877Z,6.60
2018-03-16T03:28:42.595Z,6.60
2018-03-16T03:31:12.239Z,6.60
2018-03-16T03:33:41.243Z,6.60
2018-03-16T03:36:10.181Z,6.50
2018-03-16T03:38:39.719Z,6.40
2018-03-16T03:41:08.781Z,6.40
2018-03-16T03:43:37.648Z,6.30
2018-03-16T03:46:06.571Z,6.20
2018-03-16T03:48:35.493Z,6.20
2018-03-16T03:51:04.347Z,6.20
2018-03-16T03:53:33.134Z,6.10
2018-03-16T03:56:02.863Z,6.00
2018-03-16T03:58:31.744Z,5.90
2018-03-16T04:01:00.855Z,5.90
2018-03-16T04:03:29.885Z,5.80
2018-03-16T04:05:59.443Z,5.70
2018-03-16T04:08:28.555Z,5.70
2018-03-16T04:10:57.403Z,5.70
2018-03-16T04:13:26.998Z,5.80
2018-03-16T04:15:56.640Z,5.80
2018-03-16T04:18:25.841Z,5.80
2018-03-16T04:20:54.705Z,5.90
2018-03-16T04:23:24.484Z,6.20
2018-03-16T04:25:53.390Z,6.20
2018-03-16T04:28:22.215Z,6.20
2018-03-16T04:30:51.950Z,6.30
2018-03-16T04:33:20.783Z,6.30
2018-03-16T04:35:50.441Z,6.70
2018-03-16T04:38:19.633Z,6.60
2018-03-16T04:40:48.594Z,6.90
2018-03-16T04:43:17.466Z,7.00
2018-03-16T04:45:46.324Z,7.00
2018-03-16T04:48:15.980Z,7.20
2018-03-16T04:50:45.616Z,7.20
2018-03-16T04:53:14.429Z,7.20
2018-03-16T04:55:43.279Z,7.50
2018-03-16T04:58:12.995Z,7.60
2018-03-16T05:00:42.637Z,7.80
2018-03-16T05:03:11.499Z,7.80
2018-03-16T05:05:40.580Z,8.10
2018-03-16T05:08:10.638Z,8.90
2018-03-16T05:10:39.536Z,8.90
2018-03-16T05:13:08.409Z,9.30
2018-03-16T05:15:37.280Z,9.60
2018-03-16T05:18:06.224Z,9.80
2018-03-16T05:20:35.241Z,10.00
2018-03-16T05:23:04.249Z,10.10
2018-03-16T05:25:33.122Z,10.00
2018-03-16T05:28:01.996Z,9.90
2018-03-16T05:30:30.841Z,9.70
2018-03-16T05:32:59.776Z,9.60
2018-03-16T05:35:28.704Z,9.60
2018-03-16T05:37:57.527Z,9.50
2018-03-16T05:40:26.602Z,9.40
2018-03-16T05:42:55.458Z,9.30
2018-03-16T05:45:24.416Z,9.30
2018-03-16T05:47:53.189Z,9.40
2018-03-16T05:50:22.876Z,9.60
2018-03-16T05:52:51.772Z,9.60
2018-03-16T05:55:20.620Z,9.70
2018-03-16T05:57:49.654Z,9.70
2018-03-16T06:00:18.459Z,9.90
2018-03-16T06:02:47.506Z,9.90
2018-03-16T06:05:16.377Z,10.10
2018-03-16T06:07:45.330Z,10.00
2018-03-16T06:10:14.392Z,10.10
2018-03-16T06:12:44.942Z,10.70
2018-03-16T06:15:13.887Z,10.70
2018-03-16T06:17:42.748Z,11.00
2018-03-16T06:20:11.653Z,11.40
2018-03-16T06:22:40.950Z,11.60
2018-03-16T06:25:09.989Z,11.80
2018-03-16T06:27:39.685Z,12.10
2018-03-16T06:30:09.426Z,12.20
2018-03-16T06:32:39.350Z,12.40
2018-03-16T06:35:08.268Z,12.40
2018-03-16T06:37:37.165Z,12.70
2018-03-16T06:40:06.114Z,12.90
2018-03-16T06:42:35.014Z,13.40
2018-03-16T06:45:04.253Z,13.70
2018-03-16T06:47:33.132Z,13.80
2018-03-16T06:50:02.028Z,14.20
2018-03-16T06:52:31.707Z,15.30
2018-03-16T06:55:01.417Z,15.70
2018-03-16T06:57:30.301Z,15.70
2018-03-16T06:59:59.216Z,15.40
2018-03-16T07:02:28.220Z,15.40
2018-03-16T07:04:57.277Z,15.60
2018-03-16T07:07:26.180Z,16.00
2018-03-16T07:09:55.499Z,16.30
2018-03-16T07:12:24.586Z,16.70
2018-03-16T07:14:53.495Z,17.10
2018-03-16T07:17:22.564Z,17.50
2018-03-16T07:19:51.499Z,17.40
2018-03-16T07:22:21.500Z,17.60
2018-03-16T07:24:50.798Z,17.80
2018-03-16T07:27:19.799Z,17.40
2018-03-16T07:29:50.529Z,17.40
2018-03-16T07:32:19.897Z,17.40
2018-03-16T07:34:48.785Z,18.30
2018-03-16T07:37:17.596Z,18.90
2018-03-16T07:39:46.477Z,18.90
2018-03-16T07:42:15.381Z,19.20
2018-03-16T07:44:44.688Z,19.40
2018-03-16T07:47:13.631Z,19.40
2018-03-16T07:49:42.536Z,19.80
2018-03-16T07:52:11.452Z,20.00
2018-03-16T07:54:41.224Z,19.70
2018-03-16T07:57:11.092Z,19.40
2018-03-16T07:59:40.034Z,19.40
2018-03-16T08:02:08.944Z,19.60
2018-03-16T08:04:37.833Z,19.50
2018-03-16T08:07:06.856Z,19.90
2018-03-16T08:09:35.926Z,20.50
2018-03-16T08:12:04.835Z,21.00
2018-03-16T08:14:33.894Z,21.20
2018-03-16T08:17:02.751Z,21.30
2018-03-16T08:19:31.637Z,20.80
2018-03-16T08:22:00.568Z,21.10
2018-03-16T08:24:29.468Z,21.00
2018-03-16T08:26:58.395Z,21.10
2018-03-16T08:29:28.396Z,21.60
2018-03-16T08:31:57.300Z,21.50
2018-03-16T08:34:26.223Z,21.80
2018-03-16T08:36:56.108Z,22.30
2018-03-16T08:39:26.023Z,22.00
2018-03-16T08:41:55.664Z,22.00
2018-03-16T08:44:25.404Z,22.00
2018-03-16T08:46:56.294Z,22.00
2018-03-16T08:49:25.509Z,21.30
2018-03-16T08:51:55.270Z,22.20
2018-03-16T08:54:24.207Z,22.10
2018-03-16T08:56:53.103Z,22.70
2018-03-16T08:59:22.060Z,22.80
2018-03-16T09:01:51.276Z,22.90
2018-03-16T09:04:20.975Z,22.80
2018-03-16T09:06:50.672Z,22.90
2018-03-16T09:09:19.634Z,22.90
2018-03-16T09:11:48.562Z,22.90
2018-03-16T09:14:17.590Z,23.00
2018-03-16T09:16:46.722Z,23.00
2018-03-16T09:19:15.804Z,23.10
2018-03-16T09:21:44.638Z,23.20
2018-03-16T09:24:13.694Z,23.20
2018-03-16T09:26:42.615Z,23.10
2018-03-16T09:29:12.254Z,22.50
2018-03-16T09:31:41.344Z,22.50
2018-03-16T09:34:11.065Z,22.90
2018-03-16T09:36:40.942Z,22.90
2018-03-16T09:39:10.003Z,22.90
2018-03-16T09:41:39.205Z,22.70
2018-03-16T09:44:08.128Z,22.80
2018-03-16T09:46:37.254Z,22.70
2018-03-16T09:49:06.846Z,22.50
2018-03-16T09:51:35.730Z,22.50
2018-03-16T09:54:04.696Z,22.70
2018-03-16T09:56:33.951Z,22.50
2018-03-16T09:59:03.333Z,22.50
2018-03-16T10:01:32.391Z,22.50
2018-03-16T10:04:02.164Z,22.10
2018-03-16T10:06:32.152Z,21.80
2018-03-16T10:09:01.145Z,21.70
2018-03-16T10:11:30.118Z,21.70
2018-03-16T10:13:59.152Z,21.70
2018-03-16T10:16:28.147Z,21.80
2018-03-16T10:18:57.820Z,21.80
2018-03-16T10:21:27.698Z,21.60
2018-03-16T10:23:56.842Z,21.60
2018-03-16T10:26:25.832Z,21.80
2018-03-16T10:28:55.009Z,21.60
2018-03-16T10:31:23.887Z,21.60
2018-03-16T10:33:52.895Z,21.50
2018-03-16T10:36:21.913Z,21.70
2018-03-16T10:38:50.765Z,21.60
2018-03-16T10:41:19.658Z,21.60
2018-03-16T10:43:48.817Z,21.40
2018-03-16T10:46:18.558Z,21.70
2018-03-16T10:48:47.562Z,21.60
2018-03-16T10:51:16.416Z,21.80
2018-03-16T10:53:45.601Z,21.80
2018-03-16T10:56:14.999Z,21.90
2018-03-16T10:58:44.186Z,21.80
2018-03-16T11:01:18.800Z,21.80
2018-03-16T11:03:51.583Z,21.80
2018-03-16T11:06:36.996Z,21.80
2018-03-16T11:09:06.539Z,21.80
2018-03-16T11:11:35.970Z,22.10
2018-03-16T11:14:05.280Z,22.00
2018-03-16T11:16:34.329Z,21.90
2018-03-16T11:19:03.383Z,21.70
2018-03-16T11:21:32.303Z,21.60
2018-03-16T11:24:01.236Z,21.90
2018-03-16T11:26:30.348Z,22.30
2018-03-16T11:28:59.500Z,22.00
2018-03-16T11:31:28.589Z,22.10
2018-03-16T11:33:57.489Z,22.00
2018-03-16T11:36:27.227Z,21.90
2018-03-16T11:38:56.121Z,21.90
2018-03-16T11:41:25.083Z,22.10
2018-03-16T11:43:54.500Z,21.90
2018-03-16T11:46:23.725Z,21.70
2018-03-16T11:48:53.178Z,21.60
2018-03-16T11:51:22.139Z,21.60
2018-03-16T11:53:51.264Z,21.80
2018-03-16T11:56:20.185Z,21.20
2018-03-16T11:58:49.454Z,21.10
2018-03-16T12:01:18.353Z,21.00
2018-03-16T12:03:47.515Z,21.10
2018-03-16T12:06:16.413Z,21.20
2018-03-16T12:08:46.148Z,21.30
2018-03-16T12:11:15.117Z,21.30
2018-03-16T12:13:44.210Z,21.50
2018-03-16T12:16:14.206Z,21.70
2018-03-16T12:18:44.114Z,22.00
2018-03-16T12:21:14.003Z,22.30
2018-03-16T12:23:42.934Z,22.20
2018-03-16T12:26:12.620Z,22.00
2018-03-16T12:28:49.754Z,22.00
2018-03-16T12:31:11.628Z,22.10
2018-03-16T12:33:40.591Z,22.10
2018-03-16T12:36:09.530Z,21.70
2018-03-16T12:38:38.437Z,21.50
2018-03-16T12:41:08.122Z,21.20
2018-03-16T12:43:37.011Z,21.20
2018-03-16T12:46:06.158Z,21.00
2018-03-16T12:48:35.937Z,20.60
2018-03-16T12:51:06.086Z,20.10
2018-03-16T12:53:35.282Z,20.10
2018-03-16T12:56:04.428Z,20.00
2018-03-16T12:58:33.394Z,20.10
2018-03-16T13:01:03.310Z,19.80
2018-03-16T13:03:33.216Z,19.60
2018-03-16T13:06:02.289Z,19.60
2018-03-16T13:08:31.265Z,19.60
2018-03-16T13:11:00.948Z,19.60
2018-03-16T13:13:30.009Z,19.60
2018-03-16T13:15:59.163Z,19.50
2018-03-16T13:18:28.089Z,19.40
2018-03-16T13:20:57.156Z,19.30
2018-03-16T13:23:26.031Z,19.40
2018-03-16T13:25:57.779Z,19.20
2018-03-16T13:28:26.967Z,19.10
2018-03-16T13:30:55.915Z,19.30
2018-03-16T13:33:24.839Z,19.20
2018-03-16T13:35:53.841Z,19.30
2018-03-16T13:38:23.348Z,19.20
2018-03-16T13:40:53.338Z,19.40
2018-03-16T13:43:22.707Z,19.40
2018-03-16T13:45:52.375Z,19.20
2018-03-16T13:48:22.310Z,19.10
2018-03-16T13:50:51.731Z,19.10
2018-03-16T13:53:21.455Z,19.00
2018-03-16T13:55:50.456Z,19.00
2018-03-16T13:58:19.672Z,18.90
2018-03-16T14:00:48.690Z,18.90
2018-03-16T14:03:17.579Z,18.70
2018-03-16T14:05:48.244Z,18.50
2018-03-16T14:08:17.930Z,18.40
2018-03-16T14:10:47.628Z,18.40
2018-03-16T14:13:17.334Z,18.30
2018-03-16T14:15:47.175Z,18.20
2018-03-16T14:18:17.628Z,18.10
2018-03-16T14:20:46.525Z,18.10
2018-03-16T14:23:16.315Z,18.10
2018-03-16T14:25:45.905Z,18.10
2018-03-16T14:28:15.024Z,18.10
2018-03-16T14:30:44.834Z,18.00
2018-03-16T14:33:13.899Z,18.00
2018-03-16T14:35:42.919Z,18.00
2018-03-16T14:38:13.014Z,18.00
2018-03-16T14:40:42.039Z,18.10
2018-03-16T14:43:13.582Z,17.80
2018-03-16T14:45:44.636Z,17.70
2018-03-16T14:48:14.445Z,17.70
2018-03-16T14:50:43.588Z,17.70
2018-03-16T14:53:12.880Z,17.70
2018-03-16T14:55:42.052Z,17.70
2018-03-16T14:58:11.870Z,17.70
2018-03-16T15:10:26.204Z,17.70
2018-03-16T15:12:55.637Z,17.30
2018-03-16T15:15:24.869Z,17.30
2018-03-16T15:17:56.117Z,17.20
2018-03-16T15:20:25.447Z,17.20
2018-03-16T15:22:55.256Z,17.10
2018-03-16T15:25:24.385Z,17.00
2018-03-16T15:27:53.434Z,17.00
2018-03-16T15:30:22.403Z,16.90
2018-03-16T15:32:51.400Z,16.80
2018-03-16T15:35:20.318Z,16.70
2018-03-16T15:37:49.224Z,16.70
2018-03-16T15:40:18.194Z,16.60
2018-03-16T15:42:48.061Z,16.50
2018-03-16T15:45:17.892Z,16.50
2018-03-16T15:47:47.567Z,16.50
2018-03-16T15:50:16.837Z,16.50
2018-03-16T15:52:50.113Z,16.40
2018-03-16T15:55:20.179Z,16.40
2018-03-16T15:57:49.698Z,16.40
2018-03-16T16:00:22.935Z,16.40
2018-03-16T16:02:57.030Z,16.30
2018-03-16T16:05:26.899Z,16.20
2018-03-16T16:07:56.821Z,16.10
2018-03-16T16:10:28.004Z,16.10
2018-03-16T16:12:57.109Z,16.10
2018-03-16T16:15:26.520Z,16.00
2018-03-16T16:17:56.344Z,15.90
2018-03-16T16:20:25.324Z,15.90
2018-03-16T16:22:55.472Z,16.00
2018-03-16T16:25:25.692Z,16.00
2018-03-16T16:27:57.286Z,16.00
2018-03-16T16:30:27.003Z,16.00
2018-03-16T16:32:57.012Z,16.00
2018-03-16T16:35:26.721Z,16.10
2018-03-16T16:37:56.612Z,16.00
2018-03-16T16:40:26.484Z,16.00
2018-03-16T16:42:55.521Z,16.00
2018-03-16T16:45:24.534Z,16.00
2018-03-16T16:47:53.385Z,16.00
2018-03-16T16:50:22.285Z,16.00
2018-03-16T16:52:51.331Z,15.90
2018-03-16T16:55:20.227Z,15.90
2018-03-16T16:57:49.085Z,15.90
2018-03-16T17:00:17.936Z,16.10
2018-03-16T17:02:46.790Z,16.40
2018-03-16T17:05:15.688Z,16.50
2018-03-16T17:07:44.543Z,16.60
2018-03-16T17:10:13.502Z,17.00
2018-03-16T17:12:42.433Z,17.00
2018-03-16T17:15:11.303Z,17.10
2018-03-16T17:17:40.261Z,17.10
2018-03-16T17:20:09.364Z,17.10
2018-03-16T17:22:38.248Z,17.20
2018-03-16T17:25:07.530Z,17.20
2018-03-16T17:27:37.348Z,17.20
2018-03-16T17:30:07.152Z,17.20
2018-03-16T17:32:36.192Z,17.20
2018-03-16T17:35:05.232Z,17.20
2018-03-16T17:37:34.946Z,17.10
2018-03-16T17:40:04.148Z,17.10
2018-03-16T17:42:33.745Z,17.10
2018-03-16T17:45:02.634Z,17.20
2018-03-16T17:47:31.770Z,17.20
2018-03-16T17:50:00.623Z,17.10
2018-03-16T17:52:30.290Z,17.20
2018-03-16T17:55:00.013Z,17.20
2018-03-16T17:57:30.264Z,17.20
2018-03-16T17:59:59.374Z,17.20
2018-03-16T18:02:29.107Z,17.20
2018-03-16T18:04:57.965Z,17.20
2018-03-16T18:07:26.804Z,17.30
2018-03-16T18:09:55.662Z,17.40
2018-03-16T18:12:25.352Z,17.40
2018-03-16T18:14:54.360Z,17.40
2018-03-16T18:17:23.320Z,17.40
2018-03-16T18:19:52.619Z,17.40
2018-03-16T18:22:21.575Z,17.60
2018-03-16T18:24:50.646Z,17.50
2018-03-16T18:27:19.734Z,17.60
2018-03-16T18:29:48.741Z,17.50
2018-03-16T18:32:19.285Z,17.50
2018-03-16T18:34:50.368Z,17.40
2018-03-16T18:37:21.152Z,17.40
2018-03-16T18:39:52.515Z,17.40
2018-03-16T18:42:22.273Z,17.40
2018-03-16T18:44:52.205Z,17.20
2018-03-16T18:47:23.118Z,16.90
2018-03-16T18:49:53.236Z,16.80
2018-03-16T18:52:22.636Z,16.80
2018-03-16T18:54:53.742Z,16.80
2018-03-16T18:57:24.548Z,16.50
2018-03-16T18:59:54.216Z,16.30
2018-03-16T19:02:26.470Z,16.30
2018-03-16T19:04:55.882Z,16.20
2018-03-16T19:07:26.582Z,16.30
2018-03-16T19:09:56.575Z,16.20
2018-03-16T19:12:27.079Z,16.00
2018-03-16T19:14:56.318Z,16.00
2018-03-16T19:17:25.465Z,16.00
2018-03-16T19:19:55.548Z,16.00
2018-03-16T19:22:25.662Z,15.80
2018-03-16T19:24:55.157Z,15.80
2018-03-16T19:27:24.510Z,15.70
2018-03-16T19:29:54.737Z,15.60
2018-03-16T19:32:24.167Z,15.60
2018-03-16T19:34:53.616Z,15.50
2018-03-16T19:37:23.598Z,15.70
2018-03-16T19:39:52.948Z,15.70
2018-03-16T19:42:22.288Z,15.60
2018-03-16T19:44:51.536Z,15.50
2018-03-16T19:47:21.128Z,15.40
2018-03-16T19:49:50.418Z,15.40
2018-03-16T19:52:19.825Z,15.30
2018-03-16T19:54:50.221Z,15.30
2018-03-16T19:57:19.627Z,15.20
2018-03-16T19:59:50.139Z,15.40
2018-03-16T20:02:19.509Z,15.40
2018-03-16T20:04:48.929Z,15.20
2018-03-16T20:07:18.329Z,15.20
2018-03-16T20:09:48.343Z,15.20
2018-03-16T20:12:18.292Z,15.40
2018-03-16T20:14:47.623Z,15.30
2018-03-16T20:17:17.139Z,15.40
2018-03-16T20:22:23.596Z,15.50
2018-03-16T20:24:53.251Z,15.40
2018-03-16T20:27:22.763Z,15.40
2018-03-16T20:29:52.554Z,15.40
2018-03-16T20:32:22.014Z,15.30
2018-03-16T20:34:51.037Z,15.30
2018-03-16T20:37:21.172Z,15.40
2018-03-16T20:39:50.936Z,15.50
2018-03-16T20:42:20.017Z,15.50
2018-03-16T20:44:48.988Z,15.50
2018-03-16T20:47:18.010Z,15.40
2018-03-16T20:49:47.124Z,15.40
2018-03-16T20:52:16.246Z,15.30
2018-03-16T20:54:45.467Z,15.00
2018-03-16T20:57:14.549Z,15.00
2018-03-16T20:59:43.653Z,15.00
2018-03-16T21:02:13.197Z,15.00
2018-03-16T21:04:42.224Z,15.00
2018-03-16T21:07:11.224Z,14.90
2018-03-16T21:09:40.464Z,15.00
2018-03-16T21:12:10.355Z,15.00
2018-03-16T21:14:39.321Z,15.00
2018-03-16T21:17:09.437Z,15.00
2018-03-16T21:19:38.417Z,15.00
2018-03-16T21:22:08.357Z,14.80
2018-03-16T21:24:37.230Z,14.80
2018-03-16T21:27:06.120Z,14.80
2018-03-16T21:29:35.133Z,14.70
2018-03-16T21:32:04.280Z,14.60
2018-03-16T21:34:34.262Z,14.60
2018-03-16T21:37:03.145Z,14.60
2018-03-16T21:39:32.305Z,14.60
2018-03-16T21:42:02.080Z,14.50
2018-03-16T21:44:31.215Z,14.40
2018-03-16T21:47:01.196Z,14.40
2018-03-16T21:49:30.138Z,14.40
2018-03-16T21:51:59.820Z,14.30
2018-03-16T21:54:29.481Z,14.20
2018-03-16T21:56:58.442Z,14.20
2018-03-16T21:59:27.390Z,14.20
2018-03-16T22:01:56.369Z,14.30
2018-03-16T22:04:26.111Z,14.30
2018-03-16T22:06:55.337Z,14.20
2018-03-16T22:09:24.322Z,14.10
2018-03-16T22:11:53.942Z,14.10
2018-03-16T22:14:23.842Z,14.10
2018-03-16T22:16:53.724Z,14.00
2018-03-16T22:19:23.513Z,14.20
2018-03-16T22:21:52.535Z,14.20
2018-03-16T22:24:23.205Z,14.40
2018-03-16T22:26:52.048Z,14.40
2018-03-16T22:29:20.961Z,14.30
2018-03-16T22:31:50.004Z,14.20
2018-03-16T22:34:18.848Z,14.20
2018-03-16T22:36:47.994Z,14.20
2018-03-16T22:39:17.280Z,14.20
2018-03-16T22:41:46.139Z,14.10
2018-03-16T22:44:16.206Z,13.80
2018-03-16T22:46:45.258Z,13.80
2018-03-16T22:49:14.249Z,14.00
2018-03-16T22:51:43.892Z,14.40
2018-03-16T22:54:13.062Z,14.40
2018-03-16T22:56:42.205Z,14.30
2018-03-16T22:59:11.096Z,14.30
2018-03-16T23:01:40.033Z,14.10
2018-03-16T23:04:10.200Z,13.70
2018-03-16T23:06:39.070Z,13.70
2018-03-16T23:09:07.997Z,13.60
2018-03-16T23:11:36.965Z,13.60
2018-03-16T23:14:05.995Z,13.50
2018-03-16T23:19:34.537Z,13.10
2018-03-16T23:22:04.207Z,13.10
2018-03-16T23:24:33.215Z,13.10
2018-03-16T23:27:02.064Z,13.30
2018-03-16T23:29:30.996Z,13.30
2018-03-16T23:31:59.856Z,13.10
2018-03-16T23:34:28.892Z,12.90
2018-03-16T23:36:57.868Z,12.70
2018-03-16T23:39:27.833Z,12.80
2018-03-16T23:41:57.068Z,12.80
2018-03-16T23:44:25.942Z,12.70
2018-03-16T23:46:55.002Z,12.60
2018-03-16T23:49:24.131Z,12.50
2018-03-16T23:51:53.093Z,12.40
2018-03-16T23:54:21.999Z,12.40
2018-03-16T23:56:51.330Z,12.50
2018-03-16T23:59:20.360Z,12.50
